Terminal Aerodrome Forecast
Issued by NWS

Home | Current Version | Previous Version | Text Only | Print | Product List | Glossary Off
Versions: 1 2 3 4 5 6 7 8 9 10 11 12 13 14 15 16

000
FTUS43 KICT 250520
TAFRSL
TAF
KRSL 250520Z 2506/2606 16011KT P6SM VCTS OVC015CB
      TEMPO 2506/2509 VRB15G35KT 3SM +TSRA OVC010CB
     FM250900 15008KT 3SM BR OVC005
     FM251600 19010KT P6SM SCT025
     FM252100 20012G20KT P6SM VCTS SCT060CB=

USA.gov is the U.S. government's official web portal to all federal, state and local government web resources and services.